createdAt,value
2023-04-24T00:01:13.341Z,96594.00
2023-04-24T00:05:15.340Z,96586.00
2023-04-24T00:09:16.433Z,96587.00
2023-04-24T00:13:17.476Z,96597.00
2023-04-24T00:17:21.969Z,96592.00
2023-04-24T00:21:24.925Z,96585.00
2023-04-24T00:25:25.923Z,96581.00
2023-04-24T00:29:27.043Z,96594.00
2023-04-24T00:33:29.020Z,96581.00
2023-04-24T00:37:29.872Z,96588.00
2023-04-24T00:41:31.091Z,96578.00
2023-04-24T00:45:32.347Z,96590.00
2023-04-24T00:49:33.336Z,96579.00
2023-04-24T00:53:34.401Z,96572.00
2023-04-24T00:57:36.004Z,96560.00
2023-04-24T01:01:37.379Z,96560.00
2023-04-24T01:05:38.522Z,96552.00
2023-04-24T01:09:42.226Z,96554.00
2023-04-24T01:13:43.562Z,96574.00
2023-04-24T01:17:45.531Z,96550.00
2023-04-24T01:21:48.409Z,96541.00
2023-04-24T01:25:50.633Z,96547.00
2023-04-24T01:29:52.388Z,96548.00
2023-04-24T01:33:55.061Z,96534.00
2023-04-24T01:37:56.201Z,96553.00
2023-04-24T01:41:57.480Z,96548.00
2023-04-24T01:45:58.589Z,96554.00
2023-04-24T01:49:59.896Z,96551.00
2023-04-24T01:54:00.962Z,96545.00
2023-04-24T01:58:02.633Z,96567.00
2023-04-24T02:02:04.186Z,96548.00
2023-04-24T02:06:05.624Z,96546.00
2023-04-24T02:10:07.520Z,96545.00
2023-04-24T02:14:08.857Z,96555.00
2023-04-24T02:18:10.484Z,96554.00
2023-04-24T02:22:11.633Z,96559.00
2023-04-24T02:26:12.798Z,96557.00
2023-04-24T02:30:14.403Z,96563.00
2023-04-24T02:34:16.895Z,96563.00
2023-04-24T02:38:18.006Z,96559.00
2023-04-24T02:42:19.116Z,96552.00
2023-04-24T02:46:20.374Z,96542.00
2023-04-24T02:50:21.390Z,96546.00
2023-04-24T02:54:22.522Z,96541.00
2023-04-24T02:58:23.502Z,96549.00
2023-04-24T03:02:24.990Z,96536.00
2023-04-24T03:06:27.358Z,96554.00
2023-04-24T03:10:28.335Z,96559.00
2023-04-24T03:14:33.846Z,96553.00
2023-04-24T03:18:35.059Z,96555.00
2023-04-24T03:22:36.342Z,96555.00
2023-04-24T03:26:37.719Z,96569.00
2023-04-24T03:30:38.720Z,96567.00
2023-04-24T03:34:39.844Z,96577.00
2023-04-24T03:38:41.008Z,96585.00
2023-04-24T03:42:42.170Z,96579.00
2023-04-24T03:46:43.244Z,96579.00
2023-04-24T03:50:45.018Z,96583.00
2023-04-24T03:54:46.160Z,96585.00
2023-04-24T03:58:47.379Z,96599.00
2023-04-24T04:02:48.615Z,96587.00
2023-04-24T04:06:49.865Z,96608.00
2023-04-24T04:10:50.881Z,96605.00
2023-04-24T04:14:51.881Z,96616.00
2023-04-24T04:18:53.048Z,96619.00
2023-04-24T04:22:54.210Z,96621.00
2023-04-24T04:26:57.139Z,96620.00
2023-04-24T04:30:58.476Z,96621.00
2023-04-24T04:35:02.535Z,96621.00
2023-04-24T04:39:04.267Z,96623.00
2023-04-24T04:43:05.882Z,96635.00
2023-04-24T04:47:09.224Z,96632.00
2023-04-24T04:51:10.562Z,96609.00
2023-04-24T04:55:13.662Z,96633.00
2023-04-24T04:59:14.700Z,96638.00
2023-04-24T05:07:18.778Z,96647.00
2023-04-24T05:11:19.778Z,96669.00
2023-04-24T05:15:20.863Z,96679.00
2023-04-24T05:19:21.975Z,96689.00
2023-04-24T05:23:22.962Z,96688.00
2023-04-24T05:27:25.314Z,96695.00
2023-04-24T05:31:26.512Z,96686.00
2023-04-24T05:35:27.792Z,96687.00
2023-04-24T05:39:28.758Z,96692.00
2023-04-24T05:43:29.964Z,96699.00
2023-04-24T05:47:31.132Z,96694.00
2023-04-24T05:51:32.036Z,96532.00
2023-04-24T05:55:33.132Z,96714.00
2023-04-24T05:59:36.944Z,96712.00
2023-04-24T06:03:39.858Z,96716.00
2023-04-24T06:07:41.153Z,96727.00
2023-04-24T06:11:42.904Z,96727.00
2023-04-24T06:15:45.047Z,96721.00
2023-04-24T06:19:46.225Z,96731.00
2023-04-24T06:23:47.833Z,96727.00
2023-04-24T06:27:48.767Z,96731.00
2023-04-24T06:31:50.435Z,96727.00
2023-04-24T06:35:51.413Z,96732.00
2023-04-24T06:39:52.465Z,96735.00
2023-04-24T06:43:53.613Z,96723.00
2023-04-24T06:47:54.724Z,96722.00
2023-04-24T06:51:56.077Z,96725.00
2023-04-24T06:55:57.180Z,96729.00
2023-04-24T06:59:58.249Z,96735.00
2023-04-24T07:04:00.992Z,96734.00
2023-04-24T07:08:03.479Z,96723.00
2023-04-24T07:12:04.707Z,96723.00
2023-04-24T07:16:06.320Z,96732.00
2023-04-24T07:20:09.859Z,96740.00
2023-04-24T07:24:12.088Z,96731.00
2023-04-24T07:28:13.377Z,96732.00
2023-04-24T07:32:14.988Z,96724.00
2023-04-24T07:36:17.364Z,96727.00
2023-04-24T07:40:19.265Z,96717.00
2023-04-24T07:44:20.309Z,96712.00
2023-04-24T07:48:22.423Z,96728.00
2023-04-24T07:52:24.154Z,96713.00
2023-04-24T07:56:27.965Z,96715.00
2023-04-24T08:00:29.126Z,96731.00
2023-04-24T08:04:30.359Z,96728.00
2023-04-24T08:08:31.519Z,96750.00
2023-04-24T08:12:32.493Z,96747.00
2023-04-24T08:16:34.253Z,96755.00
2023-04-24T08:20:35.616Z,96746.00
2023-04-24T08:24:37.329Z,96736.00
2023-04-24T08:28:38.833Z,96753.00
2023-04-24T08:32:39.871Z,96760.00
2023-04-24T08:36:46.983Z,96779.00
2023-04-24T08:40:46.301Z,96778.00
2023-04-24T08:44:50.127Z,96790.00
2023-04-24T08:48:52.633Z,96798.00
2023-04-24T08:52:53.964Z,96799.00
2023-04-24T08:56:58.796Z,96800.00
2023-04-24T09:01:01.005Z,96792.00
2023-04-24T09:05:04.064Z,96804.00
2023-04-24T09:09:05.821Z,96807.00
2023-04-24T09:13:09.249Z,96817.00
2023-04-24T09:17:10.368Z,96807.00
2023-04-24T09:21:12.337Z,96807.00
2023-04-24T09:25:13.830Z,96815.00
2023-04-24T09:29:17.113Z,96814.00
2023-04-24T09:33:18.495Z,96820.00
2023-04-24T09:37:30.135Z,96827.00
2023-04-24T09:41:32.962Z,96836.00
2023-04-24T09:45:39.875Z,96828.00
2023-04-24T09:49:43.077Z,96840.00
2023-04-24T09:53:50.579Z,96852.00
2023-04-24T09:57:57.491Z,96842.00
2023-04-24T10:02:00.372Z,96856.00
2023-04-24T10:06:04.186Z,96863.00
2023-04-24T10:10:06.729Z,96872.00
2023-04-24T10:14:11.383Z,96883.00
2023-04-24T10:18:12.621Z,96883.00
2023-04-24T10:22:16.298Z,96899.00
2023-04-24T10:26:18.226Z,96895.00
2023-04-24T10:30:20.314Z,96895.00
2023-04-24T10:34:23.398Z,96886.00
2023-04-24T10:38:28.394Z,96896.00
2023-04-24T10:42:29.594Z,96871.00
2023-04-24T10:46:30.928Z,96899.00
2023-04-24T10:50:50.377Z,96889.00
2023-04-24T10:54:51.520Z,96906.00
2023-04-24T10:58:54.400Z,96891.00
2023-04-24T11:02:55.781Z,96921.00
2023-04-24T11:06:58.039Z,96927.00
2023-04-24T11:11:01.935Z,96938.00
2023-04-24T11:15:03.710Z,96952.00
2023-04-24T11:19:18.130Z,96955.00
2023-04-24T11:23:20.773Z,96965.00
2023-04-24T11:27:23.126Z,96949.00
2023-04-24T11:31:42.425Z,96962.00
2023-04-24T11:35:43.681Z,96953.00
2023-04-24T11:39:44.962Z,96968.00
2023-04-24T11:43:46.645Z,96981.00
2023-04-24T11:47:48.229Z,96992.00
2023-04-24T11:51:53.535Z,96981.00
2023-04-24T11:55:52.114Z,96982.00
2023-04-24T11:59:53.352Z,96980.00
2023-04-24T12:03:58.641Z,96981.00
2023-04-24T12:08:00.146Z,96979.00
2023-04-24T12:12:01.557Z,96984.00
2023-04-24T12:16:04.934Z,96984.00
2023-04-24T12:20:08.249Z,96979.00
2023-04-24T12:24:09.397Z,96988.00
2023-04-24T12:28:12.965Z,96978.00
2023-04-24T12:32:17.631Z,96997.00
2023-04-24T12:36:20.895Z,97005.00
2023-04-24T12:40:24.635Z,97008.00
2023-04-24T12:44:34.823Z,97036.00
2023-04-24T12:48:36.045Z,97040.00
2023-04-24T12:52:39.589Z,97053.00
2023-04-24T12:56:40.683Z,97046.00
2023-04-24T13:00:43.822Z,97065.00
2023-04-24T13:04:47.074Z,97052.00
2023-04-24T13:08:48.930Z,97045.00
2023-04-24T13:12:50.193Z,97049.00
2023-04-24T13:16:51.912Z,97047.00
2023-04-24T13:20:53.182Z,97036.00
2023-04-24T13:24:55.448Z,97027.00
2023-04-24T13:28:56.618Z,97028.00
2023-04-24T13:32:57.648Z,97039.00
2023-04-24T13:36:59.092Z,97054.00
2023-04-24T13:41:00.920Z,97051.00
2023-04-24T13:45:06.015Z,97045.00
2023-04-24T13:49:05.090Z,97037.00
2023-04-24T13:53:06.427Z,97033.00
2023-04-24T13:57:07.709Z,97025.00
2023-04-24T14:01:08.935Z,97032.00
2023-04-24T14:05:11.485Z,96879.00
2023-04-24T14:09:13.184Z,97034.00
2023-04-24T14:13:14.889Z,97008.00
2023-04-24T14:17:15.842Z,97013.00
2023-04-24T14:21:17.042Z,97022.00
2023-04-24T14:25:18.067Z,97025.00
2023-04-24T14:29:19.861Z,97028.00
2023-04-24T14:33:21.414Z,97028.00
2023-04-24T14:37:22.475Z,97038.00
2023-04-24T14:41:23.566Z,97054.00
2023-04-24T14:45:25.468Z,97058.00
2023-04-24T14:49:26.609Z,97055.00
2023-04-24T14:53:28.618Z,97058.00
2023-04-24T14:57:29.908Z,97057.00
2023-04-24T15:01:31.039Z,97055.00
2023-04-24T15:05:32.399Z,97042.00
2023-04-24T15:09:33.910Z,97048.00
2023-04-24T15:13:35.097Z,97055.00
2023-04-24T15:17:36.590Z,97050.00
2023-04-24T15:21:38.181Z,97058.00
2023-04-24T15:25:39.462Z,97060.00
2023-04-24T15:29:40.714Z,97073.00
2023-04-24T15:33:41.799Z,97061.00
2023-04-24T15:37:42.907Z,97062.00
2023-04-24T15:41:43.840Z,97059.00
2023-04-24T15:45:45.007Z,97053.00
2023-04-24T15:49:46.162Z,97067.00
2023-04-24T15:53:47.712Z,97057.00
2023-04-24T15:57:49.339Z,97056.00
2023-04-24T16:01:50.417Z,97061.00
2023-04-24T16:05:53.380Z,97062.00
2023-04-24T16:09:54.346Z,97083.00
2023-04-24T16:13:55.446Z,97084.00
2023-04-24T16:17:56.976Z,97081.00
2023-04-24T16:21:58.444Z,97085.00
2023-04-24T16:25:59.427Z,97080.00
2023-04-24T16:30:00.673Z,97083.00
2023-04-24T16:34:03.544Z,97046.00
2023-04-24T16:38:04.858Z,97075.00
2023-04-24T16:42:06.256Z,97114.00
2023-04-24T16:46:07.628Z,97106.00
2023-04-24T16:50:09.738Z,97113.00
2023-04-24T16:54:10.883Z,97123.00
2023-04-24T16:58:12.329Z,97116.00
2023-04-24T17:02:13.617Z,97108.00
2023-04-24T17:06:14.781Z,97109.00
2023-04-24T17:10:16.299Z,97114.00
2023-04-24T17:14:17.257Z,97114.00
2023-04-24T17:18:18.589Z,97120.00
2023-04-24T17:22:19.827Z,97113.00
2023-04-24T17:26:20.934Z,97105.00
2023-04-24T17:34:38.127Z,97115.00
2023-04-24T17:38:39.222Z,97114.00
2023-04-24T17:42:41.812Z,97117.00
2023-04-24T17:46:43.020Z,97110.00
2023-04-24T17:50:45.361Z,97115.00
2023-04-24T17:54:46.346Z,97106.00
2023-04-24T17:58:49.694Z,97106.00
2023-04-24T18:02:53.056Z,97108.00
2023-04-24T18:06:54.200Z,97101.00
2023-04-24T18:10:55.288Z,97114.00
2023-04-24T18:15:06.617Z,97121.00
2023-04-24T18:18:59.528Z,97120.00
2023-04-24T18:23:02.238Z,97120.00
2023-04-24T18:27:03.620Z,97127.00
2023-04-24T18:31:06.798Z,97112.00
2023-04-24T18:35:08.362Z,97128.00
2023-04-24T18:39:09.556Z,97131.00
2023-04-24T18:43:10.707Z,97135.00
2023-04-24T18:47:11.909Z,97144.00
2023-04-24T18:51:13.016Z,97144.00
2023-04-24T18:55:14.209Z,97144.00
2023-04-24T18:59:15.146Z,97155.00
2023-04-24T19:03:16.296Z,97162.00
2023-04-24T19:07:19.032Z,97168.00
2023-04-24T19:11:20.597Z,97140.00
2023-04-24T19:15:23.568Z,97176.00
2023-04-24T19:19:25.482Z,97186.00
2023-04-24T19:23:26.846Z,97185.00
2023-04-24T19:27:27.846Z,97183.00
2023-04-24T19:31:29.165Z,97178.00
2023-04-24T19:35:30.451Z,97182.00
2023-04-24T19:39:31.873Z,97180.00
2023-04-24T19:43:32.960Z,97179.00
2023-04-24T19:47:33.932Z,97180.00
2023-04-24T19:51:35.482Z,97183.00
2023-04-24T19:55:37.105Z,97179.00
2023-04-24T19:59:38.222Z,97182.00
2023-04-24T20:03:39.365Z,97184.00
2023-04-24T20:07:40.697Z,97173.00
2023-04-24T20:11:43.118Z,97173.00
2023-04-24T20:15:44.411Z,97165.00
2023-04-24T20:19:45.980Z,97161.00
2023-04-24T20:23:47.121Z,97163.00
2023-04-24T20:27:48.224Z,97169.00
2023-04-24T20:31:50.285Z,97169.00
2023-04-24T20:35:51.854Z,97151.00
2023-04-24T20:39:53.029Z,97176.00
2023-04-24T20:43:53.991Z,97176.00
2023-04-24T20:47:55.149Z,97174.00
2023-04-24T20:51:58.024Z,97167.00
2023-04-24T20:55:58.985Z,97172.00
2023-04-24T21:00:00.204Z,97167.00
2023-04-24T21:04:01.403Z,97162.00
2023-04-24T21:08:02.420Z,97156.00
2023-04-24T21:12:03.987Z,97163.00
2023-04-24T21:16:05.683Z,97149.00
2023-04-24T21:20:08.261Z,97151.00
2023-04-24T21:24:09.388Z,97162.00
2023-04-24T21:28:10.600Z,97161.00
2023-04-24T21:32:11.867Z,97159.00
2023-04-24T21:36:12.852Z,97156.00
2023-04-24T21:40:15.225Z,97153.00
2023-04-24T21:44:16.174Z,97149.00
2023-04-24T21:48:17.286Z,97149.00
2023-04-24T21:52:18.248Z,97138.00
2023-04-24T21:56:19.449Z,97142.00
2023-04-24T22:00:20.953Z,97138.00
2023-04-24T22:04:22.033Z,97142.00
2023-04-24T22:08:24.641Z,97145.00
2023-04-24T22:12:25.669Z,97140.00
2023-04-24T22:16:29.021Z,97145.00
2023-04-24T22:20:30.193Z,97144.00
2023-04-24T22:24:31.292Z,97139.00
2023-04-24T22:28:32.266Z,97148.00
2023-04-24T22:32:33.985Z,97147.00
2023-04-24T22:36:35.449Z,97142.00
2023-04-24T22:40:36.394Z,97143.00
2023-04-24T22:44:37.396Z,97132.00
2023-04-24T22:48:39.267Z,97136.00
2023-04-24T22:52:41.147Z,97139.00
2023-04-24T22:56:42.412Z,97136.00
2023-04-24T23:00:43.902Z,97124.00
2023-04-24T23:04:45.097Z,97125.00
2023-04-24T23:08:46.321Z,97125.00
2023-04-24T23:12:47.643Z,97121.00
2023-04-24T23:16:48.659Z,97127.00
2023-04-24T23:20:49.958Z,97141.00
2023-04-24T23:24:51.382Z,97138.00
2023-04-24T23:28:52.806Z,97135.00
2023-04-24T23:32:53.865Z,97135.00
2023-04-24T23:36:55.263Z,97147.00
2023-04-24T23:40:56.365Z,97124.00
2023-04-24T23:44:57.340Z,97142.00
2023-04-24T23:48:58.500Z,97120.00
2023-04-24T23:52:59.965Z,97117.00
2023-04-24T23:57:01.837Z,97110.00
